Time;durP1;ratioP1;P1;durP2;ratioP2;P2;SDS_P1;SDS_P2;PMS_P1;PMS_P2;Temp;Humidity;BMP_temperature;BMP_pressure;BME280_temperature;BME280_humidity;BME280_pressure;Samples;Min_cycle;Max_cycle;Signal;HPM_P1;HPM_P2
2023/08/05 14:02:36;;;;;;;5.05;2.80;;;;;;;23.37;55.81;100517.31;5095162;27;20133;-63
2023/08/05 14:05:04;;;;;;;9.27;2.60;;;;;;;23.37;55.10;100514.63;5110138;27;20056;-63
2023/08/05 14:07:31;;;;;;;3.80;1.83;;;;;;;23.29;55.51;100509.28;5109275;27;20071;-63
2023/08/05 14:09:58;;;;;;;5.60;2.10;;;;;;;23.12;53.95;100505.84;5119455;27;20412;-65
2023/08/05 14:12:26;;;;;;;3.78;2.15;;;;;;;22.93;54.92;100501.72;5103922;27;20167;-63
2023/08/05 14:14:53;;;;;;;5.32;2.50;;;;;;;22.91;55.63;100502.91;5096665;27;21245;-64
2023/08/05 14:17:20;;;;;;;4.45;1.95;;;;;;;22.89;56.11;100494.16;5113996;27;20135;-64
2023/08/05 14:19:50;;;;;;;3.60;2.00;;;;;;;22.87;56.79;100486.25;5104225;27;20134;-64
2023/08/05 14:22:17;;;;;;;4.35;1.70;;;;;;;22.91;57.05;100493.00;5115933;27;20486;-65
2023/08/05 14:24:45;;;;;;;4.47;2.10;;;;;;;22.92;57.28;100497.38;5086146;27;20445;-64
2023/08/05 14:27:12;;;;;;;5.22;2.10;;;;;;;22.92;58.01;100497.38;5130637;27;20133;-63
2023/08/05 14:29:39;;;;;;;4.13;2.10;;;;;;;22.96;57.75;100496.00;5133766;27;20695;-64
2023/08/05 14:32:07;;;;;;;4.50;2.15;;;;;;;23.00;57.43;100491.13;5122257;27;20059;-64
2023/08/05 14:34:34;;;;;;;5.60;1.85;;;;;;;23.05;57.28;100482.53;5132968;27;20099;-63
2023/08/05 14:37:01;;;;;;;6.65;2.10;;;;;;;23.08;56.60;100484.88;5082445;27;20079;-63
2023/08/05 14:39:28;;;;;;;6.20;2.35;;;;;;;23.20;56.89;100480.81;5127588;27;20097;-65
2023/08/05 14:41:55;;;;;;;3.92;2.15;;;;;;;23.31;56.22;100474.19;5128079;27;20131;-65
2023/08/05 14:44:23;;;;;;;4.10;1.83;;;;;;;23.31;55.81;100474.19;5105843;27;20051;-65
2023/08/05 14:46:51;;;;;;;9.02;1.85;;;;;;;23.28;56.04;100477.22;5124599;27;20106;-65
2023/08/05 14:49:18;;;;;;;6.93;2.67;;;;;;;23.21;56.05;100483.31;5130188;27;20134;-65
2023/08/05 14:51:46;;;;;;;7.78;1.92;;;;;;;23.13;56.39;100480.66;5119942;27;20071;-64
2023/08/05 14:54:13;;;;;;;4.18;1.83;;;;;;;23.00;56.55;100477.69;5130504;27;20063;-64
2023/08/05 14:56:40;;;;;;;3.42;1.70;;;;;;;22.91;56.54;100484.09;5125511;27;20047;-64
2023/08/05 14:59:10;;;;;;;6.05;2.33;;;;;;;22.80;56.77;100479.94;5103051;27;20642;-64
2023/08/05 15:01:37;;;;;;;5.70;2.40;;;;;;;22.80;56.56;100479.09;5126476;27;20138;-65
2023/08/05 15:04:05;;;;;;;4.97;2.05;;;;;;;22.79;56.47;100477.44;5126512;27;20553;-65
2023/08/05 15:06:32;;;;;;;3.75;2.15;;;;;;;22.81;56.04;100470.03;5100787;28;20040;-63
2023/08/05 15:09:00;;;;;;;6.15;2.25;;;;;;;22.73;55.85;100470.88;5131618;27;20047;-64
2023/08/05 15:11:27;;;;;;;2.75;1.70;;;;;;;22.69;55.26;100465.03;5123574;27;20135;-64
2023/08/05 15:13:54;;;;;;;3.88;1.73;;;;;;;22.71;55.86;100459.50;5095246;28;20134;-63
2023/08/05 15:16:22;;;;;;;6.97;2.50;;;;;;;22.82;56.40;100466.31;5119170;27;20047;-63
2023/08/05 15:18:49;;;;;;;5.40;2.05;;;;;;;23.01;56.76;100457.91;5117700;27;20066;-65
2023/08/05 15:21:16;;;;;;;6.28;2.58;;;;;;;23.14;56.04;100458.16;5087501;27;20380;-65
2023/08/05 15:23:43;;;;;;;4.80;2.13;;;;;;;23.25;55.81;100457.75;5115191;27;20130;-64
2023/08/05 15:26:11;;;;;;;6.35;2.50;;;;;;;23.33;55.48;100453.38;5121976;27;20518;-63
2023/08/05 15:28:38;;;;;;;4.57;2.03;;;;;;;23.30;55.49;100445.66;5097493;27;20439;-62
2023/08/05 15:31:06;;;;;;;4.45;2.05;;;;;;;23.27;55.41;100441.47;5092433;27;20131;-62
2023/08/05 15:33:33;;;;;;;6.30;2.58;;;;;;;23.24;55.86;100439.97;5125487;27;20464;-63
2023/08/05 15:36:00;;;;;;;5.40;2.47;;;;;;;23.23;55.75;100443.66;5117756;27;20112;-64
2023/08/05 15:38:27;;;;;;;4.13;2.00;;;;;;;23.18;55.25;100429.09;5121374;27;20150;-64
2023/08/05 15:40:58;;;;;;;3.00;1.70;;;;;;;23.15;55.31;100434.84;5084600;28;20070;-64
2023/08/05 15:43:26;;;;;;;7.28;2.42;;;;;;;23.19;55.20;100426.25;5094643;27;20056;-62
2023/08/05 15:45:55;;;;;;;5.45;2.60;;;;;;;23.18;54.82;100424.56;5100967;27;20077;-63
2023/08/05 15:48:22;;;;;;;5.82;2.70;;;;;;;23.19;54.85;100428.06;5079950;27;20055;-65
2023/08/05 15:50:50;;;;;;;5.10;2.10;;;;;;;23.17;54.70;100425.59;5097516;27;20130;-63
2023/08/05 15:53:17;;;;;;;4.85;2.47;;;;;;;23.07;54.97;100424.16;5101840;27;20087;-64
2023/08/05 15:55:44;;;;;;;5.00;2.00;;;;;;;23.07;55.15;100416.91;5111772;27;20040;-63
2023/08/05 15:58:12;;;;;;;4.43;2.20;;;;;;;23.08;55.14;100409.69;5119011;27;20068;-62
2023/08/05 16:00:39;;;;;;;5.95;1.95;;;;;;;23.13;55.01;100418.88;5105572;27;20228;-62
2023/08/05 16:03:07;;;;;;;3.90;1.88;;;;;;;23.10;55.21;100411.22;5089787;27;20046;-63
2023/08/05 16:05:34;;;;;;;7.13;2.10;;;;;;;23.10;55.21;100410.34;5116019;27;20147;-65
2023/08/05 16:08:01;;;;;;;5.65;2.10;;;;;;;23.06;55.48;100411.75;5119113;27;20075;-65
2023/08/05 16:10:28;;;;;;;4.75;2.05;;;;;;;22.93;55.05;100407.78;5115425;27;20201;-64
2023/08/05 16:12:55;;;;;;;7.32;2.33;;;;;;;22.83;55.55;100403.56;5110934;27;20126;-65
2023/08/05 16:15:25;;;;;;;7.82;3.03;;;;;;;22.74;56.30;100400.97;5116911;27;20075;-67
2023/08/05 16:17:52;;;;;;;6.70;3.88;;;;;;;22.64;57.08;100399.47;5116505;27;20047;-64
2023/08/05 16:20:19;;;;;;;6.88;3.58;;;;;;;22.55;57.47;100400.53;5111114;27;20067;-65
2023/08/05 16:22:46;;;;;;;6.63;2.92;;;;;;;22.39;57.50;100390.69;5120390;27;20102;-64
2023/08/05 16:25:14;;;;;;;2.85;2.20;;;;;;;22.28;57.65;100396.41;5116100;27;20090;-64
2023/08/05 16:27:42;;;;;;;6.57;2.40;;;;;;;22.18;58.31;100391.25;5089341;27;20050;-64
2023/08/05 16:30:09;;;;;;;7.50;3.30;;;;;;;22.11;58.34;100390.22;5115844;27;20457;-65
2023/08/05 16:32:39;;;;;;;5.32;2.88;;;;;;;22.03;59.68;100385.72;5117714;27;20035;-64
2023/08/05 16:35:06;;;;;;;9.55;2.90;;;;;;;21.96;60.39;100382.03;5117375;27;20112;-65
2023/08/05 16:37:33;;;;;;;4.88;2.90;;;;;;;21.92;61.27;100378.03;5110206;27;20138;-64
2023/08/05 16:40:01;;;;;;;8.35;2.70;;;;;;;21.84;60.90;100386.06;5110089;27;20142;-65
2023/08/05 16:42:28;;;;;;;3.40;2.33;;;;;;;21.68;61.03;100377.06;5105647;27;20429;-64
2023/08/05 16:44:55;;;;;;;6.90;2.05;;;;;;;21.62;60.22;100379.59;5116197;27;20431;-65
2023/08/05 16:47:22;;;;;;;4.43;2.40;;;;;;;21.54;60.32;100380.41;5116386;27;20100;-64
2023/08/05 16:49:50;;;;;;;5.93;2.50;;;;;;;21.47;60.58;100377.56;5091223;27;20135;-64
2023/08/05 16:52:17;;;;;;;4.28;2.42;;;;;;;21.40;61.20;100373.03;5117560;27;20086;-65
2023/08/05 16:54:46;;;;;;;3.60;2.35;;;;;;;21.36;61.32;100366.34;5089916;27;20139;-67
2023/08/05 16:57:13;;;;;;;4.35;1.90;;;;;;;21.32;62.06;100365.00;5116429;27;20097;-65
2023/08/05 16:59:40;;;;;;;6.55;2.85;;;;;;;21.23;61.86;100369.47;5113639;27;20055;-64
2023/08/05 17:02:07;;;;;;;6.00;2.72;;;;;;;21.12;62.75;100367.97;5112776;27;20043;-64
2023/08/05 17:04:34;;;;;;;5.93;2.60;;;;;;;21.06;62.57;100371.28;5115651;27;20138;-66
2023/08/05 17:07:02;;;;;;;6.47;2.40;;;;;;;21.02;63.40;100367.25;5114566;27;20456;-65
2023/08/05 17:09:29;;;;;;;4.55;2.30;;;;;;;20.95;63.45;100364.41;5112570;27;20078;-66
2023/08/05 17:11:56;;;;;;;5.10;2.70;;;;;;;20.90;64.31;100365.91;5117261;27;20138;-64
2023/08/05 17:14:24;;;;;;;6.40;2.72;;;;;;;20.85;64.93;100362.88;5110714;27;20096;-65
2023/08/05 17:16:51;;;;;;;5.55;3.50;;;;;;;20.81;64.66;100362.38;5116442;27;20083;-64
2023/08/05 17:19:18;;;;;;;7.43;2.97;;;;;;;20.77;64.60;100361.03;5116538;27;20142;-64
2023/08/05 17:21:46;;;;;;;5.65;2.65;;;;;;;20.72;64.58;100363.34;5097438;27;20083;-64
2023/08/05 17:24:13;;;;;;;5.50;3.00;;;;;;;20.65;65.56;100368.50;5113512;27;20109;-65
2023/08/05 17:26:40;;;;;;;5.57;2.88;;;;;;;20.58;65.25;100359.47;5100527;27;20474;-66
2023/08/05 17:29:07;;;;;;;4.68;2.53;;;;;;;20.57;65.66;100360.44;5112264;27;20082;-65
2023/08/05 17:31:35;;;;;;;5.82;2.90;;;;;;;20.53;66.26;100363.59;5119258;27;20071;-65
2023/08/05 17:34:02;;;;;;;5.65;2.83;;;;;;;20.46;66.39;100358.03;5121796;27;20118;-64
2023/08/05 17:36:29;;;;;;;7.60;2.88;;;;;;;20.44;67.15;100346.66;5118057;27;20174;-65
2023/08/05 17:38:56;;;;;;;5.32;2.92;;;;;;;20.41;67.20;100357.69;5106086;27;20047;-65
2023/08/05 17:41:24;;;;;;;6.80;2.45;;;;;;;20.34;67.69;100357.47;5111636;27;20616;-64
2023/08/05 17:43:51;;;;;;;6.78;2.83;;;;;;;20.27;68.15;100359.13;5110568;27;20147;-65
2023/08/05 17:46:18;;;;;;;5.13;2.58;;;;;;;20.24;67.97;100362.09;5115417;27;20462;-65
2023/08/05 17:48:45;;;;;;;9.75;2.70;;;;;;;20.22;68.49;100356.09;5087473;28;20502;-65
2023/08/05 17:51:13;;;;;;;6.10;3.10;;;;;;;20.19;68.05;100353.72;5111393;27;20077;-64
2023/08/05 17:53:40;;;;;;;5.88;2.67;;;;;;;20.16;68.49;100362.06;5113981;27;20150;-65
2023/08/05 17:56:07;;;;;;;5.32;2.58;;;;;;;20.13;69.18;100357.88;5115713;27;20139;-65
2023/08/05 17:58:34;;;;;;;6.18;2.97;;;;;;;20.08;69.21;100357.50;5090618;28;20113;-67
2023/08/05 18:01:02;;;;;;;6.38;3.10;;;;;;;20.04;69.93;100350.81;5072826;28;20047;-64
2023/08/05 18:03:29;;;;;;;7.10;2.95;;;;;;;19.98;70.07;100348.75;5116034;28;20036;-65
2023/08/05 18:05:56;;;;;;;5.22;2.78;;;;;;;19.93;70.57;100357.25;5110336;28;20594;-66
2023/08/05 18:08:45;;;;;;;8.25;3.17;;;;;;;19.87;70.82;100349.03;5118933;28;20044;-65
2023/08/05 18:11:13;;;;;;;4.93;2.88;;;;;;;19.81;71.08;100352.31;5121070;28;20116;-66
2023/08/05 18:13:43;;;;;;;6.85;2.90;;;;;;;19.75;71.11;100345.78;5113745;28;20130;-64
2023/08/05 18:16:11;;;;;;;9.30;3.30;;;;;;;19.68;71.18;100348.25;5112450;28;20100;-65
2023/08/05 18:18:39;;;;;;;6.25;2.80;;;;;;;19.64;71.24;100352.22;5114906;28;20127;-64
2023/08/05 18:21:08;;;;;;;6.43;2.70;;;;;;;19.60;71.09;100350.00;5112725;28;20111;-64
2023/08/05 18:23:35;;;;;;;5.03;2.67;;;;;;;19.55;71.20;100349.63;5117217;28;20126;-66
2023/08/05 18:26:03;;;;;;;5.32;3.00;;;;;;;19.51;71.68;100345.56;5110543;28;20075;-67
2023/08/05 18:28:30;;;;;;;6.78;2.83;;;;;;;19.44;72.13;100348.84;5091803;28;20143;-65
2023/08/05 18:30:58;;;;;;;5.75;3.10;;;;;;;19.38;72.01;100354.81;5108668;28;20105;-66
2023/08/05 18:33:25;;;;;;;5.80;3.30;;;;;;;19.35;72.22;100351.59;5090011;28;20078;-65
2023/08/05 18:35:53;;;;;;;4.43;3.00;;;;;;;19.32;72.58;100358.09;5074584;28;20567;-65
2023/08/05 18:38:20;;;;;;;7.90;3.40;;;;;;;19.29;72.50;100350.41;5123862;28;20079;-64
2023/08/05 18:40:48;;;;;;;5.43;3.22;;;;;;;19.27;72.78;100352.38;5088562;28;20079;-66
2023/08/05 18:43:16;;;;;;;5.88;3.00;;;;;;;19.25;72.82;100351.69;5117963;28;20044;-66
2023/08/05 18:45:44;;;;;;;8.05;3.45;;;;;;;19.20;72.98;100346.81;5115198;28;20080;-66
2023/08/05 18:48:11;;;;;;;14.73;3.53;;;;;;;19.19;73.53;100352.31;5117889;27;20070;-66
2023/08/05 18:50:39;;;;;;;4.93;3.35;;;;;;;19.15;73.84;100348.28;5117304;27;20070;-66
2023/08/05 18:53:07;;;;;;;9.93;4.30;;;;;;;19.11;74.11;100358.41;5118240;27;20097;-64
2023/08/05 18:55:35;;;;;;;8.43;3.72;;;;;;;19.07;74.71;100354.34;5113874;27;20051;-65
2023/08/05 18:58:02;;;;;;;6.88;3.88;;;;;;;19.04;74.84;100346.66;5123990;27;20271;-64
2023/08/05 19:00:29;;;;;;;6.63;3.97;;;;;;;19.01;75.20;100344.31;5118706;27;20079;-64
2023/08/05 19:02:57;;;;;;;9.15;4.25;;;;;;;18.98;75.63;100350.78;5108708;27;20114;-65
2023/08/05 19:05:24;;;;;;;5.80;3.97;;;;;;;18.98;76.04;100347.25;5110141;27;20059;-66
2023/08/05 19:07:51;;;;;;;7.82;4.80;;;;;;;18.96;75.95;100346.59;5113342;27;20059;-67
2023/08/05 19:10:19;;;;;;;7.53;5.05;;;;;;;18.94;76.10;100356.56;5120110;27;20202;-67
2023/08/05 19:12:46;;;;;;;8.05;4.15;;;;;;;18.90;76.33;100358.69;5100858;27;20595;-63
2023/08/05 19:15:13;;;;;;;9.80;4.63;;;;;;;18.87;76.53;100353.66;5110725;27;20040;-65
2023/08/05 19:17:40;;;;;;;6.03;3.90;;;;;;;18.83;76.90;100354.13;5116909;27;20075;-66
2023/08/05 19:20:08;;;;;;;7.22;4.05;;;;;;;18.80;77.18;100344.56;5113887;27;20050;-66
2023/08/05 19:22:36;;;;;;;11.27;4.70;;;;;;;18.77;77.70;100346.69;5126873;27;20501;-64
2023/08/05 19:25:03;;;;;;;7.68;3.97;;;;;;;18.74;77.64;100339.03;5119871;27;20532;-65
2023/08/05 19:27:31;;;;;;;7.18;3.40;;;;;;;18.73;78.05;100348.81;5119626;27;20098;-65
2023/08/05 19:30:14;;;;;;;6.35;3.60;;;;;;;18.71;78.38;100353.47;5110930;27;20081;-66
2023/08/05 19:32:42;;;;;;;7.25;3.50;;;;;;;18.69;78.46;100348.31;5093437;27;20074;-65
2023/08/05 19:35:09;;;;;;;13.75;4.95;;;;;;;18.69;78.63;100348.31;5091798;28;20082;-65
2023/08/05 19:37:36;;;;;;;8.25;4.20;;;;;;;18.67;78.99;100347.56;5116697;27;20043;-67
2023/08/05 19:40:04;;;;;;;7.65;3.70;;;;;;;18.65;79.19;100338.88;5116806;27;20138;-67
2023/08/05 19:42:33;;;;;;;7.65;3.72;;;;;;;18.66;79.91;100340.56;5105948;27;20122;-65
2023/08/05 19:45:00;;;;;;;6.72;4.13;;;;;;;18.66;80.09;100337.06;5093520;27;20047;-66
2023/08/05 19:47:28;;;;;;;6.43;3.40;;;;;;;18.65;80.90;100338.88;5101091;27;20058;-65
2023/08/05 19:49:55;;;;;;;10.35;3.65;;;;;;;18.63;81.16;100332.84;5117776;27;20180;-67
2023/08/05 19:52:22;;;;;;;10.13;3.90;;;;;;;18.61;81.64;100334.84;5085289;27;20070;-66
2023/08/05 19:54:50;;;;;;;6.10;3.60;;;;;;;18.59;81.73;100327.97;5115343;27;20040;-65
2023/08/05 19:57:17;;;;;;;7.43;4.05;;;;;;;18.58;81.74;100319.13;5127387;27;20075;-67
2023/08/05 19:59:44;;;;;;;8.57;4.05;;;;;;;18.57;81.69;100313.97;5088066;28;20097;-67
2023/08/05 20:02:11;;;;;;;9.95;3.80;;;;;;;18.55;81.56;100314.13;5114845;27;20554;-66
2023/08/05 20:04:39;;;;;;;13.40;4.55;;;;;;;18.54;81.91;100311.59;5113000;27;20047;-65
2023/08/05 20:07:06;;;;;;;6.45;4.05;;;;;;;18.52;82.19;100303.75;5121172;27;20055;-67
2023/08/05 20:09:33;;;;;;;9.07;4.00;;;;;;;18.50;82.21;100302.19;5122672;27;20116;-68
2023/08/05 20:12:01;;;;;;;6.40;3.95;;;;;;;18.47;82.89;100303.38;5073039;28;20047;-65
2023/08/05 20:14:28;;;;;;;6.38;3.75;;;;;;;18.43;82.42;100307.31;5123281;27;20141;-67
2023/08/05 20:16:55;;;;;;;6.25;3.70;;;;;;;18.40;82.31;100296.94;5114807;27;20454;-67
2023/08/05 20:19:23;;;;;;;6.47;3.45;;;;;;;18.37;82.04;100291.88;5119193;27;20078;-63
2023/08/05 20:21:50;;;;;;;11.23;3.78;;;;;;;18.36;82.07;100290.22;5120748;27;20122;-66
2023/08/05 20:24:18;;;;;;;7.85;3.80;;;;;;;18.33;82.72;100296.72;5121090;27;20097;-65
2023/08/05 20:26:47;;;;;;;9.32;3.47;;;;;;;18.31;82.46;100298.66;5091967;28;20070;-66
2023/08/05 20:29:14;;;;;;;8.60;3.10;;;;;;;18.30;82.48;100298.81;5116963;27;20047;-66
2023/08/05 20:31:41;;;;;;;10.05;3.38;;;;;;;18.29;81.91;100294.47;5113054;27;20043;-63
2023/08/05 20:34:08;;;;;;;15.70;3.95;;;;;;;18.28;81.69;100290.13;5114909;27;20122;-66
2023/08/05 20:36:36;;;;;;;6.20;3.60;;;;;;;18.25;82.02;100287.78;5113389;27;20092;-65
2023/08/05 20:39:04;;;;;;;6.13;3.10;;;;;;;18.23;82.27;100280.75;5115852;27;20051;-66
2023/08/05 20:41:31;;;;;;;6.18;3.55;;;;;;;18.21;82.63;100272.06;5086631;28;20154;-66
2023/08/05 20:43:59;;;;;;;7.82;3.70;;;;;;;18.20;82.71;100261.56;5089598;27;20071;-65
2023/08/05 20:46:28;;;;;;;9.43;4.10;;;;;;;18.18;83.23;100267.03;5111019;27;20498;-64
2023/08/05 20:48:55;;;;;;;7.53;3.80;;;;;;;18.16;84.54;100258.34;5119781;27;20105;-64
2023/08/05 20:51:24;;;;;;;9.15;4.07;;;;;;;18.12;84.97;100251.66;5094945;27;20061;-65
2023/08/05 20:53:52;;;;;;;6.05;3.30;;;;;;;18.13;85.05;100253.31;5117404;27;20051;-64
2023/08/05 20:56:19;;;;;;;13.88;3.72;;;;;;;18.12;84.91;100250.81;5093411;27;20717;-66
2023/08/05 20:58:46;;;;;;;8.85;3.65;;;;;;;18.09;86.21;100243.94;5084607;27;20039;-65
2023/08/05 21:01:14;;;;;;;6.32;3.95;;;;;;;18.07;86.62;100243.25;5115753;27;20081;-65
2023/08/05 21:03:41;;;;;;;11.85;4.20;;;;;;;18.07;87.21;100237.94;5087111;28;20549;-66
2023/08/05 21:06:08;;;;;;;7.07;3.80;;;;;;;18.05;87.59;100234.56;5116680;27;20138;-65
2023/08/05 21:08:36;;;;;;;6.95;3.83;;;;;;;18.04;87.93;100238.22;5112130;27;20135;-65
2023/08/05 21:11:06;;;;;;;6.43;3.65;;;;;;;18.02;88.51;100232.22;5109058;27;20048;-64
2023/08/05 21:13:35;;;;;;;8.18;4.22;;;;;;;18.02;89.27;100234.03;5113296;27;20047;-64
2023/08/05 21:16:03;;;;;;;9.27;3.53;;;;;;;18.00;89.61;100231.50;5101112;27;20094;-64
2023/08/05 21:18:32;;;;;;;8.27;3.47;;;;;;;17.99;90.39;100229.00;5114137;27;20154;-65
2023/08/05 21:21:00;;;;;;;10.05;4.05;;;;;;;17.98;90.60;100227.34;5108779;27;20471;-64
2023/08/05 21:23:27;;;;;;;12.10;3.70;;;;;;;17.96;90.71;100227.47;5099281;27;20157;-64
2023/08/05 21:25:55;;;;;;;8.75;4.18;;;;;;;17.94;91.83;100221.47;5097120;27;20085;-65
2023/08/05 21:28:22;;;;;;;9.65;3.80;;;;;;;17.94;92.02;100232.13;5091418;28;20055;-67
2023/08/05 21:30:50;;;;;;;9.32;4.18;;;;;;;17.93;92.49;100225.94;5116125;27;20051;-64
2023/08/05 21:33:17;;;;;;;10.93;3.97;;;;;;;17.92;92.78;100218.94;5122396;27;20051;-64
2023/08/05 21:35:45;;;;;;;9.70;4.22;;;;;;;17.91;93.09;100217.25;5091320;27;20052;-64
2023/08/05 21:38:13;;;;;;;8.88;4.10;;;;;;;17.92;93.44;100210.09;5104598;27;20507;-64
2023/08/05 21:40:45;;;;;;;8.70;4.30;;;;;;;17.90;93.67;100212.91;5104513;27;20090;-63
2023/08/05 21:43:13;;;;;;;7.65;3.92;;;;;;;17.89;93.84;100202.44;5108276;28;20100;-63
2023/08/05 21:45:56;;;;;;;11.50;4.60;;;;;;;17.88;94.13;100200.75;5085999;28;20048;-62
2023/08/05 21:48:24;;;;;;;11.63;3.92;;;;;;;17.86;94.92;100192.91;5128993;27;20508;-64
2023/08/05 21:50:51;;;;;;;11.23;4.45;;;;;;;17.83;95.22;100189.69;5108383;27;20126;-65
2023/08/05 21:53:18;;;;;;;7.93;4.18;;;;;;;17.79;95.80;100191.81;5112667;27;20097;-65
2023/08/05 21:55:46;;;;;;;9.45;4.25;;;;;;;17.79;95.94;100191.00;5105382;28;20040;-64
2023/08/05 21:58:13;;;;;;;8.52;4.55;;;;;;;17.77;96.26;100182.28;5108560;28;20078;-64
2023/08/05 22:00:41;;;;;;;11.27;4.88;;;;;;;17.75;96.67;100184.28;5110285;28;20067;-66
2023/08/05 22:03:10;;;;;;;11.73;5.00;;;;;;;17.73;96.80;100184.38;5111613;28;20039;-64
2023/08/05 22:05:37;;;;;;;7.72;4.63;;;;;;;17.71;97.17;100179.22;5084042;28;20047;-64
2023/08/05 22:08:05;;;;;;;12.98;5.32;;;;;;;17.70;97.38;100179.38;5101086;28;20718;-64
2023/08/05 22:10:32;;;;;;;11.23;4.95;;;;;;;17.68;97.58;100173.34;5102290;28;20063;-65
2023/08/05 22:12:59;;;;;;;7.15;5.10;;;;;;;17.66;98.52;100172.66;5096598;28;20107;-64
2023/08/05 22:15:27;;;;;;;7.50;5.35;;;;;;;17.62;99.19;100173.94;5111862;28;20143;-63
2023/08/05 22:17:55;;;;;;;8.93;6.15;;;;;;;17.60;100.00;100176.72;5092270;28;20047;-64
2023/08/05 22:20:22;;;;;;;12.88;5.55;;;;;;;17.57;100.00;100169.06;5113359;28;20381;-65
2023/08/05 22:22:50;;;;;;;10.32;6.47;;;;;;;17.55;100.00;100167.50;5089573;28;20054;-65
2023/08/05 22:25:18;;;;;;;10.75;6.53;;;;;;;17.55;100.00;100168.34;5082306;27;20130;-63
2023/08/05 22:27:45;;;;;;;11.60;6.30;;;;;;;17.57;100.00;100168.22;5092273;27;20067;-63
2023/08/05 22:30:12;;;;;;;10.20;5.50;;;;;;;17.57;100.00;100162.88;5086325;28;20092;-68
2023/08/05 22:32:39;;;;;;;12.25;6.40;;;;;;;17.57;100.00;100160.22;5077701;27;20082;-64
2023/08/05 22:35:07;;;;;;;11.10;6.07;;;;;;;17.57;100.00;100149.59;5103042;27;20113;-65
2023/08/05 22:37:34;;;;;;;7.60;5.45;;;;;;;17.56;100.00;100148.75;5110172;27;20040;-63
2023/08/05 22:40:03;;;;;;;7.43;5.40;;;;;;;17.57;100.00;100149.59;5112818;27;20598;-63
2023/08/05 22:42:31;;;;;;;9.48;6.32;;;;;;;17.55;100.00;100146.22;5090492;27;20134;-64
2023/08/05 22:44:58;;;;;;;13.25;6.50;;;;;;;17.51;100.00;100153.66;5108986;27;20079;-63
2023/08/05 22:47:25;;;;;;;8.85;6.13;;;;;;;17.49;100.00;100155.63;5108996;27;20188;-65
2023/08/05 22:49:53;;;;;;;9.60;6.65;;;;;;;17.49;100.00;100142.31;5109527;27;20695;-67
2023/08/05 22:52:20;;;;;;;11.65;7.03;;;;;;;17.49;100.00;100144.16;5110253;27;20125;-65
2023/08/05 22:54:47;;;;;;;9.38;7.15;;;;;;;17.49;100.00;100149.47;5113922;27;20089;-64
2023/08/05 22:57:14;;;;;;;9.45;6.32;;;;;;;17.46;100.00;100139.94;5106332;27;20052;-63
2023/08/05 22:59:42;;;;;;;11.82;7.22;;;;;;;17.45;100.00;100147.09;5110862;27;20090;-64
2023/08/05 23:02:09;;;;;;;8.43;6.57;;;;;;;17.44;100.00;100150.75;5092076;27;20132;-66
2023/08/05 23:04:36;;;;;;;7.57;6.55;;;;;;;17.41;100.00;100152.84;5106891;27;20605;-64
2023/08/05 23:07:03;;;;;;;8.65;7.18;;;;;;;17.36;100.00;100142.66;5114244;27;20039;-64
2023/08/05 23:09:31;;;;;;;10.02;7.18;;;;;;;17.35;100.00;100143.63;5123500;27;20043;-64
2023/08/05 23:11:58;;;;;;;11.27;6.57;;;;;;;17.33;100.00;100132.28;5111403;27;20097;-64
2023/08/05 23:14:26;;;;;;;12.40;7.45;;;;;;;17.32;100.00;100125.28;5104344;27;20063;-64
2023/08/05 23:19:18;;;;;;;14.02;8.20;;;;;;;17.33;100.00;100118.97;5113235;27;20144;-67
2023/08/05 23:21:45;;;;;;;11.35;7.38;;;;;;;17.34;100.00;100117.19;5066213;28;20083;-64
2023/08/05 23:24:12;;;;;;;9.38;7.63;;;;;;;17.34;100.00;100111.88;5095710;28;20174;-66
2023/08/05 23:26:41;;;;;;;9.93;7.93;;;;;;;17.35;100.00;100108.22;5088855;28;20143;-65
2023/08/05 23:29:08;;;;;;;13.55;7.97;;;;;;;17.34;100.00;100107.38;5084852;28;20072;-64
2023/08/05 23:31:35;;;;;;;9.85;7.50;;;;;;;17.33;100.00;100110.16;5087749;28;20061;-64
2023/08/05 23:34:03;;;;;;;12.18;8.43;;;;;;;17.32;100.00;100111.16;5093920;28;20150;-66
2023/08/05 23:36:30;;;;;;;10.85;6.82;;;;;;;17.33;100.00;100118.16;5095317;28;20123;-63
2023/08/05 23:38:57;;;;;;;10.10;8.45;;;;;;;17.31;100.00;100118.31;5088459;28;20431;-64
2023/08/05 23:41:25;;;;;;;11.88;8.02;;;;;;;17.31;100.00;100118.31;5082221;28;20570;-64
2023/08/05 23:43:52;;;;;;;8.75;7.63;;;;;;;17.31;100.00;100118.31;5092591;28;20161;-63
2023/08/05 23:46:19;;;;;;;9.82;7.47;;;;;;;17.31;100.00;100112.16;5093275;28;20108;-65
2023/08/05 23:48:47;;;;;;;8.30;7.05;;;;;;;17.31;100.00;100117.47;5089307;28;20132;-65
2023/08/05 23:51:14;;;;;;;10.55;7.25;;;;;;;17.30;100.00;100108.66;5086066;28;20075;-64
2023/08/05 23:53:41;;;;;;;9.68;7.20;;;;;;;17.30;100.00;100116.63;5099782;28;20065;-66
2023/08/05 23:56:09;;;;;;;8.90;6.88;;;;;;;17.29;100.00;100109.66;5089824;28;20094;-65
2023/08/05 23:58:36;;;;;;;10.65;6.32;;;;;;;17.30;100.00;100103.34;5087476;28;20064;-65
